Latest Coastal Weather Observations for Cape Otway

IDV60701

Issued at 7:52 pm EST Monday 4 May 2026 (issued every 10 minutes, with the page automatically refreshed every 10 minutes)

About coastal observations | Map of coastal stations | Coastal observations for VIC | Marine services | Other Formats
Station Details ID: 090015 Name: CAPE OTWAY LIGHTHOUSE Lat: -38.86 Lon: 143.51 Height: 80.0 m
Data from the previous 72 hours. | See also: Recent months at Cape Otway
Date/Time
EST
Wind Sea
Height
m
Swell Vis
km
Cloud Weather Temp
°C
Press
MSL
hPa
Rain since
9am
mm
Dir  Spd
kts
Gust
kts
Height
m
Period
s
Dir
04/07:30pm WNW 20 34 - - - - - - - 14.0 1006.8 2.8
04/07:00pm WNW 22 33 - - - - - - - 14.3 1006.5 2.4
04/06:30pm WNW 18 29 - - - - - - - 13.9 1006.0 2.0
04/06:00pm WNW 16 28 - - - - - - Recent precip. 13.6 1005.8 1.8
04/05:51pm NW 15 28 - - - - - - - 13.3 1005.7 1.8
04/05:30pm NW 14 24 - - - - - - - 13.2 1005.5 1.4
04/05:02pm NW 15 25 - - - - - - - 13.7 1005.3 0.8
04/05:00pm NW 14 25 - - - - - - - 13.7 1005.3 0.8
04/04:30pm NW 15 23 - - - - - - - 13.9 1005.1 0.6
04/04:00pm NW 11 16 - - - - - - - 13.9 1005.0 0.4
04/03:30pm NNW 12 19 - - - - - - - 14.9 1004.9 0.0
04/03:00pm NNW 11 18 - - - - - - - 15.6 1004.9 0.0
04/02:30pm NNW 13 22 - - - - - - - 17.0 1004.7 0.0
04/02:00pm NNW 11 21 - - - - - - - 17.6 1004.9 0.0
04/01:30pm NNW 10 16 - - - - - - - 18.3 1005.2 0.0
04/01:00pm NNW 11 20 - - - - - - - 16.6 1005.5 0.0
04/12:30pm NNW 11 21 - - - - - - - 16.8 1005.8 0.0
04/12:00pm NNW 11 19 - - - - - - - 16.9 1006.1 0.0
04/11:30am NNW 13 25 - - - - - - - 15.9 1006.6 0.0
04/11:00am N 13 24 - - - - - - - 16.3 1006.5 0.0
04/10:30am NNW 12 22 - - - - - - - 16.0 1006.7 0.0
04/10:00am NNW 15 29 - - - - - - - 15.5 1006.4 0.0
04/09:30am N 16 26 - - - - - - - 15.0 1006.5 0.0
04/09:16am N 15 27 - - - - - - - 15.0 1006.6 0.0
04/09:00am N 12 20 - - - - - - - 14.9 1006.7 2.4
04/08:30am N 12 20 - - - - - - - 13.9 1006.9 2.4
04/08:00am NNE 9 14 - - - - - - - 13.0 1007.0 2.4
04/07:30am N 9 16 - - - - - - - 12.8 1007.0 2.4
04/07:00am N 12 19 - - - - - - - 12.7 1007.1 2.4
04/06:30am N 12 18 - - - - - - - 12.9 1007.1 2.4
04/06:00am N 10 15 - - - - - - - 12.9 1007.5 2.4
04/05:30am N 8 13 - - - - - - - 13.1 1007.4 2.4
04/05:00am N 10 18 - - - - - - - 13.6 1007.5 2.4
04/04:30am N 12 20 - - - - - - - 13.9 1007.6 2.4
04/04:00am N 9 15 - - - - - - - 14.0 1008.0 2.4
04/03:30am N 8 17 - - - - - - - 13.7 1008.2 2.4
04/03:00am N 10 17 - - - - - - - 14.2 1008.0 2.4
04/02:30am N 12 19 - - - - - - - 14.1 1008.1 2.4
04/02:00am N 10 18 - - - - - - - 13.8 1008.3 2.4
04/01:30am N 10 17 - - - - - - - 13.7 1008.7 2.4
04/01:00am NNW 11 19 - - - - - - - 13.8 1008.8 2.4
04/12:30am N 12 17 - - - - - - - 14.1 1009.0 2.4
04/12:00am NNW 12 17 - - - - - - - 14.2 1009.1 2.4
 
Date/Time
EST
Wind Sea
Height
m
Swell Vis
km
Cloud Weather Temp
°C
Press
MSL
hPa
Rain since
9am
mm
Dir  Spd
kts
Gust
kts
Height
m
Period
s
Dir
03/11:30pm NNW 12 17 - - - - - - - 14.7 1009.4 2.4
03/11:00pm NNW 10 15 - - - - - - - 15.2 1009.8 2.4
03/10:30pm NNW 11 18 - - - - - - - 15.4 1010.0 2.4
03/10:00pm NNW 10 16 - - - - - - - 15.2 1010.1 2.4
03/09:30pm NNW 12 17 - - - - - - - 15.1 1010.1 2.4
03/09:00pm N 9 14 - - - - - - - 15.0 1010.2 2.4
03/08:30pm N 10 14 - - - - - - - 15.3 1010.0 2.4
03/08:00pm N 8 11 - - - - - - - 14.8 1009.8 2.4
03/07:30pm N 7 11 - - - - - - - 15.1 1009.9 2.4
03/07:00pm N 6 8 - - - - - - - 15.0 1009.9 2.4
03/06:30pm N 5 8 - - - - - - - 15.1 1009.5 2.4
03/06:00pm N 5 9 - - - - - - - 15.4 1008.9 2.4
03/05:30pm NNW 6 9 - - - - - - - 16.2 1008.7 2.4
03/05:00pm N 2 6 - - - - - - - 17.0 1008.3 2.4
03/04:30pm NNW 4 8 - - - - - - - 18.4 1008.2 2.4
03/04:00pm NNW 10 16 - - - - - - - 18.2 1008.3 2.4
03/03:30pm NNW 10 16 - - - - - - - 18.6 1008.3 2.4
03/03:00pm NNW 11 18 - - - - - - - 18.5 1008.6 2.4
03/02:30pm NNW 9 16 - - - - - - - 18.0 1008.3 2.4
03/02:00pm NW 8 12 - - - - - - - 17.3 1008.3 2.4
03/01:30pm NW 8 14 - - - - - - - 17.8 1008.6 2.4
03/01:00pm WNW 7 10 - - - - - - - 17.6 1009.0 2.4
03/12:30pm NW 6 11 - - - - - - - 16.7 1009.0 2.4
03/12:00pm NW 7 11 - - - - - - - 16.5 1009.3 2.4
03/11:30am WNW 7 11 - - - - - - - 14.7 1009.6 2.4
03/11:00am WNW 6 11 - - - - - - - 14.4 1009.3 2.4
03/10:30am WNW 8 14 - - - - - - - 13.8 1009.4 2.0
03/10:00am WNW 11 15 - - - - - - - 13.3 1009.4 0.6
03/09:30am WNW 12 18 - - - - - - - 13.6 1009.9 0.2
03/09:00am WNW 9 14 - - - - - - - 15.1 1009.0 0.2
03/08:30am N 6 10 - - - - - - - 18.0 1009.0 0.2
03/08:00am NNE 10 15 - - - - - - - 18.1 1008.9 0.2
03/07:30am NE 6 10 - - - - - - - 17.4 1009.0 0.2
03/07:00am NNE 7 10 - - - - - - - 17.4 1009.0 0.2
03/06:30am N 14 24 - - - - - - - 17.3 1008.7 0.2
03/06:00am NNE 8 14 - - - - - - - 18.5 1009.3 0.2
03/05:30am ENE 6 9 - - - - - - - 18.8 1009.3 0.2
03/05:00am NNE 10 20 - - - - - - - 19.2 1009.3 0.2
03/04:30am NNE 9 17 - - - - - - - 18.9 1009.5 0.2
03/04:00am NNE 10 19 - - - - - - - 18.9 1009.1 0.2
03/03:30am NNE 12 21 - - - - - - - 19.4 1009.8 0.2
03/03:00am NNE 9 14 - - - - - - - 18.8 1010.0 0.2
03/02:30am N 15 23 - - - - - - - 18.8 1010.5 0.2
03/02:00am NNE 11 21 - - - - - - - 17.9 1010.5 0.2
03/01:30am NNE 16 28 - - - - - - - 18.2 1010.7 0.0
03/01:05am N 15 28 - - - - - - - 19.7 1011.0 0.0
03/01:00am N 14 23 - - - - - - - 19.7 1011.1 0.0
03/12:38am N 16 28 - - - - - - - 20.2 1011.3 0.0
03/12:30am N 13 20 - - - - - - - 20.2 1011.5 0.0
03/12:00am N 12 25 - - - - - - - 20.0 1011.3 0.0
 
Date/Time
EST
Wind Sea
Height
m
Swell Vis
km
Cloud Weather Temp
°C
Press
MSL
hPa
Rain since
9am
mm
Dir  Spd
kts
Gust
kts
Height
m
Period
s
Dir
02/11:33pm N 15 27 - - - - - - - 20.0 1011.5 0.0
02/11:30pm N 14 27 - - - - - - - 20.0 1011.6 0.0
02/11:00pm N 15 25 - - - - - - - 20.6 1011.9 0.0
02/10:30pm N 16 27 - - - - - - - 20.7 1011.9 0.0
02/10:00pm N 18 32 - - - - - - - 20.7 1012.0 0.0
02/09:30pm N 17 28 - - - - - - - 21.0 1011.9 0.0
02/09:06pm N 17 27 - - - - - - - 21.0 1012.2 0.0
02/09:00pm N 16 24 - - - - - - - 21.0 1012.1 0.0
02/08:45pm NNE 15 26 - - - - - - - 21.0 1012.0 0.0
02/08:30pm N 14 22 - - - - - - - 20.7 1012.2 0.0
02/08:00pm N 13 21 - - - - - - - 20.7 1012.5 0.0
02/07:30pm N 12 23 - - - - - - - 21.1 1012.7 0.0
02/07:00pm N 9 18 - - - - - - - 22.6 1012.7 0.0
02/06:30pm NNE 8 15 - - - - - - - 23.0 1012.2 0.0
02/06:00pm N 7 19 - - - - - - - 23.2 1011.9 0.0
02/05:30pm NNE 8 14 - - - - - - - 23.3 1011.7 0.0
02/05:00pm NNE 8 13 - - - - - - - 23.4 1011.6 0.0
02/04:30pm NNE 5 8 - - - - - - - 23.4 1011.8 0.0
02/04:00pm N 7 12 - - - - - - - 23.9 1011.9 0.0
02/03:30pm NNE 7 10 - - - - - - - 23.7 1012.1 0.0
02/03:00pm NNE 8 12 - - - - - - - 23.8 1012.0 0.0
02/02:30pm N 12 21 - - - - - - - 23.8 1012.0 0.0
02/02:00pm N 15 23 - - - - - - - 23.8 1012.0 0.0
02/01:45pm N 15 25 - - - - - - - 23.8 1012.2 0.0
02/01:30pm N 16 24 - - - - - - - 23.5 1012.4 0.0
02/01:00pm N 15 25 - - - - - - - 24.2 1012.8 0.0
02/12:52pm N 15 26 - - - - - - - 24.6 1013.0 0.0
02/12:30pm N 12 18 - - - - - - - 22.9 1013.6 0.0
02/12:00pm NNE 11 20 - - - - - - - 22.6 1014.3 0.0
02/11:30am NNE 9 15 - - - - - - - 22.2 1014.9 0.0
02/11:00am NNE 10 16 - - - - - - - 21.7 1015.3 0.0
02/10:30am NNE 12 17 - - - - - - - 21.4 1015.6 0.0
02/10:00am N 12 21 - - - - - - - 21.7 1015.8 0.0
02/09:30am N 13 20 - - - - - - - 21.9 1016.0 0.0
02/09:00am N 13 19 - - - - - - - 21.4 1016.1 0.0
02/08:30am N 12 22 - - - - - - - 21.2 1016.1 0.0
02/08:00am NNE 14 20 - - - - - - - 21.2 1015.9 0.0
02/07:30am NNE 12 20 - - - - - - - 21.1 1015.8 0.0
02/07:00am NNE 11 16 - - - - - - - 21.0 1015.7 0.0
02/06:30am NNE 11 17 - - - - - - - 21.0 1015.7 0.0
02/06:00am NE 10 16 - - - - - - - 20.7 1015.8 0.0
02/05:30am NE 10 15 - - - - - - - 20.5 1015.9 0.0
02/05:00am NE 10 17 - - - - - - - 20.9 1016.0 0.0
02/04:30am NE 9 14 - - - - - - - 20.8 1016.4 0.0
02/04:00am NNE 9 16 - - - - - - - 20.7 1016.6 0.0
02/03:30am NE 9 11 - - - - - - - 20.5 1016.8 0.0
02/03:00am NNE 9 15 - - - - - - - 21.2 1017.3 0.0
02/02:30am NNE 9 15 - - - - - - - 21.5 1017.4 0.0
02/02:00am NNE 10 15 - - - - - - - 21.3 1017.6 0.0
02/01:30am NNE 10 15 - - - - - - - 21.5 1017.9 0.0
02/01:00am NNE 11 16 - - - - - - - 21.6 1018.1 0.0
02/12:30am NNE 11 16 - - - - - - - 21.8 1018.3 0.0
02/12:00am NNE 12 19 - - - - - - - 22.0 1018.5 0.0
 
Date/Time
EST
Wind Sea
Height
m
Swell Vis
km
Cloud Weather Temp
°C
Press
MSL
hPa
Rain since
9am
mm
Dir  Spd
kts
Gust
kts
Height
m
Period
s
Dir
01/11:30pm NNE 10 15 - - - - - - - 22.0 1018.8 0.0
01/11:00pm NNE 9 14 - - - - - - - 22.2 1019.3 0.0
01/10:30pm NNE 10 15 - - - - - - - 22.3 1019.5 0.0
01/10:00pm NNE 9 15 - - - - - - - 22.3 1019.7 0.0
01/09:30pm NNE 9 14 - - - - - - - 22.4 1019.7 0.0
01/09:00pm NNE 8 12 - - - - - - - 22.1 1019.7 0.0
01/08:30pm NNE 8 12 - - - - - - - 22.2 1019.7 0.0
01/08:00pm NNE 8 11 - - - - - - - 22.3 1019.6 0.0

Other formats

Comma delimited format used in spreadsheet applications
http://www.bom.gov.au/fwo/IDV60701/IDV60701.94842.axf

JavaScript Object Notation format (JSON) in row-major order
http://www.bom.gov.au/fwo/IDV60701/IDV60701.94842.json

Data quality

Most of these data are generated automatically and are frequently updated. Quality checks on data are not normally performed. It is possible for incorrect values to appear. Refer to information at About Latest Weather Observations and please check the disclaimer before using these data.